sensor_id;sensor_type;location;lat;lon;timestamp;P1;durP1;ratioP1;P2;durP2;ratioP2
47713;SDS011;33475;46.614;13.888;2023-07-29T00:01:53;10.63;;;2.55;;
47713;SDS011;33475;46.614;13.888;2023-07-29T00:04:19;3.15;;;2.42;;
47713;SDS011;33475;46.614;13.888;2023-07-29T00:06:45;2.28;;;2.10;;
47713;SDS011;33475;46.614;13.888;2023-07-29T00:09:11;2.95;;;2.10;;
47713;SDS011;33475;46.614;13.888;2023-07-29T00:11:38;2.30;;;2.10;;
47713;SDS011;33475;46.614;13.888;2023-07-29T00:14:04;3.30;;;1.90;;
47713;SDS011;33475;46.614;13.888;2023-07-29T00:16:30;1.92;;;1.80;;
47713;SDS011;33475;46.614;13.888;2023-07-29T00:18:56;2.28;;;1.70;;
47713;SDS011;33475;46.614;13.888;2023-07-29T00:21:22;1.50;;;1.30;;
47713;SDS011;33475;46.614;13.888;2023-07-29T00:23:49;1.40;;;1.30;;
47713;SDS011;33475;46.614;13.888;2023-07-29T00:26:15;1.50;;;1.15;;
47713;SDS011;33475;46.614;13.888;2023-07-29T00:28:41;2.00;;;1.27;;
47713;SDS011;33475;46.614;13.888;2023-07-29T00:31:07;1.95;;;1.30;;
47713;SDS011;33475;46.614;13.888;2023-07-29T00:33:33;1.30;;;1.20;;
47713;SDS011;33475;46.614;13.888;2023-07-29T00:35:59;1.05;;;1.05;;
47713;SDS011;33475;46.614;13.888;2023-07-29T00:38:27;4.00;;;0.80;;
47713;SDS011;33475;46.614;13.888;2023-07-29T00:40:53;1.20;;;0.75;;
47713;SDS011;33475;46.614;13.888;2023-07-29T00:43:19;1.17;;;0.60;;
47713;SDS011;33475;46.614;13.888;2023-07-29T00:45:45;2.22;;;0.50;;
47713;SDS011;33475;46.614;13.888;2023-07-29T00:48:12;1.95;;;0.80;;
47713;SDS011;33475;46.614;13.888;2023-07-29T00:50:38;1.52;;;0.60;;
47713;SDS011;33475;46.614;13.888;2023-07-29T00:53:05;1.23;;;0.60;;
47713;SDS011;33475;46.614;13.888;2023-07-29T00:55:31;0.50;;;0.50;;
47713;SDS011;33475;46.614;13.888;2023-07-29T00:57:57;0.63;;;0.63;;
47713;SDS011;33475;46.614;13.888;2023-07-29T01:00:23;0.95;;;0.50;;
47713;SDS011;33475;46.614;13.888;2023-07-29T01:02:50;0.63;;;0.50;;
47713;SDS011;33475;46.614;13.888;2023-07-29T01:05:17;0.85;;;0.57;;
47713;SDS011;33475;46.614;13.888;2023-07-29T01:07:47;0.70;;;0.70;;
47713;SDS011;33475;46.614;13.888;2023-07-29T01:12:49;0.50;;;0.50;;
47713;SDS011;33475;46.614;13.888;2023-07-29T01:15:24;0.95;;;0.63;;
47713;SDS011;33475;46.614;13.888;2023-07-29T01:18:04;0.75;;;0.50;;
47713;SDS011;33475;46.614;13.888;2023-07-29T01:20:34;0.82;;;0.60;;
47713;SDS011;33475;46.614;13.888;2023-07-29T01:23:02;0.70;;;0.70;;
47713;SDS011;33475;46.614;13.888;2023-07-29T01:25:28;1.73;;;0.65;;
47713;SDS011;33475;46.614;13.888;2023-07-29T01:27:54;1.50;;;0.70;;
47713;SDS011;33475;46.614;13.888;2023-07-29T01:30:21;0.65;;;0.60;;
47713;SDS011;33475;46.614;13.888;2023-07-29T01:35:19;1.10;;;0.50;;
47713;SDS011;33475;46.614;13.888;2023-07-29T01:37:49;1.23;;;0.45;;
47713;SDS011;33475;46.614;13.888;2023-07-29T01:40:17;0.80;;;0.80;;
47713;SDS011;33475;46.614;13.888;2023-07-29T01:42:44;3.55;;;0.70;;
47713;SDS011;33475;46.614;13.888;2023-07-29T01:45:11;0.95;;;0.57;;
47713;SDS011;33475;46.614;13.888;2023-07-29T01:47:37;1.02;;;0.73;;
47713;SDS011;33475;46.614;13.888;2023-07-29T01:50:05;0.60;;;0.60;;
47713;SDS011;33475;46.614;13.888;2023-07-29T01:52:32;0.80;;;0.60;;
47713;SDS011;33475;46.614;13.888;2023-07-29T01:54:58;0.55;;;0.55;;
47713;SDS011;33475;46.614;13.888;2023-07-29T01:57:24;0.38;;;0.38;;
47713;SDS011;33475;46.614;13.888;2023-07-29T01:59:50;0.40;;;0.40;;
47713;SDS011;33475;46.614;13.888;2023-07-29T02:02:16;0.63;;;0.40;;
47713;SDS011;33475;46.614;13.888;2023-07-29T02:04:42;1.33;;;0.60;;
47713;SDS011;33475;46.614;13.888;2023-07-29T02:07:10;0.52;;;0.52;;
47713;SDS011;33475;46.614;13.888;2023-07-29T02:09:36;1.02;;;0.60;;
47713;SDS011;33475;46.614;13.888;2023-07-29T02:12:02;0.63;;;0.57;;
47713;SDS011;33475;46.614;13.888;2023-07-29T02:14:28;0.47;;;0.47;;
47713;SDS011;33475;46.614;13.888;2023-07-29T02:16:55;0.60;;;0.55;;
47713;SDS011;33475;46.614;13.888;2023-07-29T02:19:21;0.90;;;0.68;;
47713;SDS011;33475;46.614;13.888;2023-07-29T02:21:47;1.00;;;0.70;;
47713;SDS011;33475;46.614;13.888;2023-07-29T02:24:13;0.70;;;0.60;;
47713;SDS011;33475;46.614;13.888;2023-07-29T02:26:39;3.80;;;1.10;;
47713;SDS011;33475;46.614;13.888;2023-07-29T02:29:06;0.93;;;0.60;;
47713;SDS011;33475;46.614;13.888;2023-07-29T02:31:32;1.35;;;0.60;;
47713;SDS011;33475;46.614;13.888;2023-07-29T02:33:59;1.65;;;0.80;;
47713;SDS011;33475;46.614;13.888;2023-07-29T02:36:25;1.48;;;0.85;;
47713;SDS011;33475;46.614;13.888;2023-07-29T02:38:52;2.55;;;1.17;;
47713;SDS011;33475;46.614;13.888;2023-07-29T02:41:18;0.70;;;0.65;;
47713;SDS011;33475;46.614;13.888;2023-07-29T02:43:47;0.70;;;0.60;;
47713;SDS011;33475;46.614;13.888;2023-07-29T02:46:13;1.58;;;1.00;;
47713;SDS011;33475;46.614;13.888;2023-07-29T02:48:40;1.20;;;1.10;;
47713;SDS011;33475;46.614;13.888;2023-07-29T02:51:06;1.23;;;1.00;;
47713;SDS011;33475;46.614;13.888;2023-07-29T02:53:32;1.77;;;1.10;;
47713;SDS011;33475;46.614;13.888;2023-07-29T02:55:58;2.15;;;1.00;;
47713;SDS011;33475;46.614;13.888;2023-07-29T02:58:24;1.98;;;1.33;;
47713;SDS011;33475;46.614;13.888;2023-07-29T03:00:51;1.35;;;1.20;;
47713;SDS011;33475;46.614;13.888;2023-07-29T03:03:17;1.48;;;1.10;;
47713;SDS011;33475;46.614;13.888;2023-07-29T03:05:44;2.50;;;1.02;;
47713;SDS011;33475;46.614;13.888;2023-07-29T03:08:10;1.55;;;1.10;;
47713;SDS011;33475;46.614;13.888;2023-07-29T03:10:38;1.50;;;0.93;;
47713;SDS011;33475;46.614;13.888;2023-07-29T03:13:04;2.05;;;1.10;;
47713;SDS011;33475;46.614;13.888;2023-07-29T03:15:31;2.75;;;1.45;;
47713;SDS011;33475;46.614;13.888;2023-07-29T03:17:59;2.13;;;1.20;;
47713;SDS011;33475;46.614;13.888;2023-07-29T03:20:25;1.38;;;0.80;;
47713;SDS011;33475;46.614;13.888;2023-07-29T03:22:51;1.02;;;1.02;;
47713;SDS011;33475;46.614;13.888;2023-07-29T03:25:17;3.03;;;0.98;;
47713;SDS011;33475;46.614;13.888;2023-07-29T03:27:43;1.98;;;1.00;;
47713;SDS011;33475;46.614;13.888;2023-07-29T03:30:09;1.08;;;0.98;;
47713;SDS011;33475;46.614;13.888;2023-07-29T03:32:37;1.27;;;1.10;;
47713;SDS011;33475;46.614;13.888;2023-07-29T03:35:03;1.77;;;1.20;;
47713;SDS011;33475;46.614;13.888;2023-07-29T03:37:29;1.67;;;1.13;;
47713;SDS011;33475;46.614;13.888;2023-07-29T03:39:55;2.00;;;1.30;;
47713;SDS011;33475;46.614;13.888;2023-07-29T03:42:22;1.17;;;1.00;;
47713;SDS011;33475;46.614;13.888;2023-07-29T03:44:48;1.88;;;1.42;;
47713;SDS011;33475;46.614;13.888;2023-07-29T03:47:14;4.95;;;1.98;;
47713;SDS011;33475;46.614;13.888;2023-07-29T03:49:40;7.07;;;1.30;;
47713;SDS011;33475;46.614;13.888;2023-07-29T03:52:06;1.05;;;1.00;;
47713;SDS011;33475;46.614;13.888;2023-07-29T03:54:32;1.23;;;0.98;;
47713;SDS011;33475;46.614;13.888;2023-07-29T03:56:58;1.05;;;0.95;;
47713;SDS011;33475;46.614;13.888;2023-07-29T03:59:24;1.90;;;1.20;;
47713;SDS011;33475;46.614;13.888;2023-07-29T04:01:50;2.25;;;1.33;;
47713;SDS011;33475;46.614;13.888;2023-07-29T04:04:16;1.83;;;1.52;;
47713;SDS011;33475;46.614;13.888;2023-07-29T04:06:43;0.93;;;0.80;;
47713;SDS011;33475;46.614;13.888;2023-07-29T04:09:09;1.10;;;1.10;;
47713;SDS011;33475;46.614;13.888;2023-07-29T04:11:35;1.92;;;1.00;;
47713;SDS011;33475;46.614;13.888;2023-07-29T04:14:01;2.80;;;1.20;;
47713;SDS011;33475;46.614;13.888;2023-07-29T04:16:27;5.95;;;1.10;;
47713;SDS011;33475;46.614;13.888;2023-07-29T04:18:54;3.53;;;1.30;;
47713;SDS011;33475;46.614;13.888;2023-07-29T04:21:20;1.58;;;1.27;;
47713;SDS011;33475;46.614;13.888;2023-07-29T04:23:46;1.65;;;1.20;;
47713;SDS011;33475;46.614;13.888;2023-07-29T04:26:12;1.70;;;1.30;;
47713;SDS011;33475;46.614;13.888;2023-07-29T04:28:38;1.00;;;0.98;;
47713;SDS011;33475;46.614;13.888;2023-07-29T04:31:04;0.73;;;0.65;;
47713;SDS011;33475;46.614;13.888;2023-07-29T04:33:30;1.30;;;0.80;;
47713;SDS011;33475;46.614;13.888;2023-07-29T04:35:56;0.70;;;0.70;;
47713;SDS011;33475;46.614;13.888;2023-07-29T04:38:27;1.05;;;0.90;;
47713;SDS011;33475;46.614;13.888;2023-07-29T04:40:53;3.03;;;0.80;;
47713;SDS011;33475;46.614;13.888;2023-07-29T04:43:19;0.88;;;0.80;;
47713;SDS011;33475;46.614;13.888;2023-07-29T04:45:45;1.27;;;1.10;;
47713;SDS011;33475;46.614;13.888;2023-07-29T04:48:11;2.95;;;0.93;;
47713;SDS011;33475;46.614;13.888;2023-07-29T04:50:37;1.10;;;0.98;;
47713;SDS011;33475;46.614;13.888;2023-07-29T04:53:04;3.63;;;1.17;;
47713;SDS011;33475;46.614;13.888;2023-07-29T04:55:30;1.25;;;1.00;;
47713;SDS011;33475;46.614;13.888;2023-07-29T04:57:56;1.20;;;0.90;;
47713;SDS011;33475;46.614;13.888;2023-07-29T05:00:22;1.35;;;1.00;;
47713;SDS011;33475;46.614;13.888;2023-07-29T05:02:48;1.27;;;0.88;;
47713;SDS011;33475;46.614;13.888;2023-07-29T05:05:14;1.05;;;0.98;;
47713;SDS011;33475;46.614;13.888;2023-07-29T05:07:40;0.88;;;0.88;;
47713;SDS011;33475;46.614;13.888;2023-07-29T05:10:06;1.15;;;1.00;;
47713;SDS011;33475;46.614;13.888;2023-07-29T05:12:33;1.00;;;0.80;;
47713;SDS011;33475;46.614;13.888;2023-07-29T05:14:59;1.77;;;0.85;;
47713;SDS011;33475;46.614;13.888;2023-07-29T05:17:25;4.20;;;1.38;;
47713;SDS011;33475;46.614;13.888;2023-07-29T05:19:51;1.67;;;0.80;;
47713;SDS011;33475;46.614;13.888;2023-07-29T05:22:17;0.70;;;0.70;;
47713;SDS011;33475;46.614;13.888;2023-07-29T05:24:43;1.38;;;0.80;;
47713;SDS011;33475;46.614;13.888;2023-07-29T05:27:09;1.85;;;1.00;;
47713;SDS011;33475;46.614;13.888;2023-07-29T05:29:35;2.55;;;0.88;;
47713;SDS011;33475;46.614;13.888;2023-07-29T05:32:01;1.15;;;0.90;;
47713;SDS011;33475;46.614;13.888;2023-07-29T05:34:28;0.85;;;0.85;;
47713;SDS011;33475;46.614;13.888;2023-07-29T05:36:54;0.50;;;0.50;;
47713;SDS011;33475;46.614;13.888;2023-07-29T05:39:20;0.80;;;0.70;;
47713;SDS011;33475;46.614;13.888;2023-07-29T05:41:46;1.13;;;0.60;;
47713;SDS011;33475;46.614;13.888;2023-07-29T05:44:12;0.70;;;0.60;;
47713;SDS011;33475;46.614;13.888;2023-07-29T05:46:38;2.08;;;0.95;;
47713;SDS011;33475;46.614;13.888;2023-07-29T05:49:04;1.42;;;0.70;;
47713;SDS011;33475;46.614;13.888;2023-07-29T05:51:30;1.13;;;0.73;;
47713;SDS011;33475;46.614;13.888;2023-07-29T05:53:56;1.10;;;0.80;;
47713;SDS011;33475;46.614;13.888;2023-07-29T05:56:23;0.75;;;0.70;;
47713;SDS011;33475;46.614;13.888;2023-07-29T05:58:49;1.77;;;0.80;;
47713;SDS011;33475;46.614;13.888;2023-07-29T06:01:15;2.25;;;0.70;;
47713;SDS011;33475;46.614;13.888;2023-07-29T06:03:41;0.73;;;0.47;;
47713;SDS011;33475;46.614;13.888;2023-07-29T06:06:08;0.60;;;0.60;;
47713;SDS011;33475;46.614;13.888;2023-07-29T06:08:34;1.75;;;0.60;;
47713;SDS011;33475;46.614;13.888;2023-07-29T06:11:00;1.08;;;0.70;;
47713;SDS011;33475;46.614;13.888;2023-07-29T06:13:26;0.82;;;0.80;;
47713;SDS011;33475;46.614;13.888;2023-07-29T06:15:52;1.25;;;0.77;;
47713;SDS011;33475;46.614;13.888;2023-07-29T06:18:19;1.42;;;0.70;;
47713;SDS011;33475;46.614;13.888;2023-07-29T06:20:45;0.80;;;0.70;;
47713;SDS011;33475;46.614;13.888;2023-07-29T06:23:11;0.70;;;0.70;;
47713;SDS011;33475;46.614;13.888;2023-07-29T06:25:37;0.50;;;0.50;;
47713;SDS011;33475;46.614;13.888;2023-07-29T06:28:03;0.60;;;0.60;;
47713;SDS011;33475;46.614;13.888;2023-07-29T06:30:29;0.55;;;0.55;;
47713;SDS011;33475;46.614;13.888;2023-07-29T06:32:56;1.15;;;0.75;;
47713;SDS011;33475;46.614;13.888;2023-07-29T06:35:22;3.38;;;0.70;;
47713;SDS011;33475;46.614;13.888;2023-07-29T06:37:49;2.25;;;0.70;;
47713;SDS011;33475;46.614;13.888;2023-07-29T06:40:15;2.40;;;0.75;;
47713;SDS011;33475;46.614;13.888;2023-07-29T06:42:41;1.52;;;0.80;;
47713;SDS011;33475;46.614;13.888;2023-07-29T06:45:08;3.40;;;0.85;;
47713;SDS011;33475;46.614;13.888;2023-07-29T06:47:35;1.52;;;0.68;;
47713;SDS011;33475;46.614;13.888;2023-07-29T06:50:01;0.60;;;0.60;;
47713;SDS011;33475;46.614;13.888;2023-07-29T06:52:27;0.70;;;0.65;;
47713;SDS011;33475;46.614;13.888;2023-07-29T06:54:53;0.90;;;0.85;;
47713;SDS011;33475;46.614;13.888;2023-07-29T06:57:19;0.45;;;0.43;;
47713;SDS011;33475;46.614;13.888;2023-07-29T06:59:45;1.00;;;0.60;;
47713;SDS011;33475;46.614;13.888;2023-07-29T07:02:12;3.53;;;0.68;;
47713;SDS011;33475;46.614;13.888;2023-07-29T07:04:38;1.10;;;0.80;;
47713;SDS011;33475;46.614;13.888;2023-07-29T07:07:04;0.90;;;0.80;;
47713;SDS011;33475;46.614;13.888;2023-07-29T07:09:31;1.02;;;0.68;;
47713;SDS011;33475;46.614;13.888;2023-07-29T07:11:57;2.17;;;0.80;;
47713;SDS011;33475;46.614;13.888;2023-07-29T07:14:23;1.20;;;0.80;;
47713;SDS011;33475;46.614;13.888;2023-07-29T07:16:49;1.02;;;0.82;;
47713;SDS011;33475;46.614;13.888;2023-07-29T07:19:15;1.20;;;0.70;;
47713;SDS011;33475;46.614;13.888;2023-07-29T07:21:41;0.55;;;0.55;;
47713;SDS011;33475;46.614;13.888;2023-07-29T07:24:07;1.13;;;0.88;;
47713;SDS011;33475;46.614;13.888;2023-07-29T07:26:34;1.23;;;0.88;;
47713;SDS011;33475;46.614;13.888;2023-07-29T07:29:00;1.38;;;0.70;;
47713;SDS011;33475;46.614;13.888;2023-07-29T07:31:26;0.88;;;0.60;;
47713;SDS011;33475;46.614;13.888;2023-07-29T07:33:52;0.90;;;0.75;;
47713;SDS011;33475;46.614;13.888;2023-07-29T07:36:18;0.50;;;0.50;;
47713;SDS011;33475;46.614;13.888;2023-07-29T07:38:44;0.75;;;0.70;;
47713;SDS011;33475;46.614;13.888;2023-07-29T07:41:10;1.67;;;0.57;;
47713;SDS011;33475;46.614;13.888;2023-07-29T07:43:36;1.38;;;0.60;;
47713;SDS011;33475;46.614;13.888;2023-07-29T07:46:03;1.00;;;0.75;;
47713;SDS011;33475;46.614;13.888;2023-07-29T07:48:29;1.00;;;0.60;;
47713;SDS011;33475;46.614;13.888;2023-07-29T07:50:58;1.15;;;0.70;;
47713;SDS011;33475;46.614;13.888;2023-07-29T07:53:24;0.50;;;0.50;;
47713;SDS011;33475;46.614;13.888;2023-07-29T07:55:53;1.13;;;0.60;;
47713;SDS011;33475;46.614;13.888;2023-07-29T07:58:19;0.60;;;0.50;;
47713;SDS011;33475;46.614;13.888;2023-07-29T08:00:45;0.73;;;0.70;;
47713;SDS011;33475;46.614;13.888;2023-07-29T08:03:11;0.95;;;0.70;;
47713;SDS011;33475;46.614;13.888;2023-07-29T08:05:37;0.85;;;0.68;;
47713;SDS011;33475;46.614;13.888;2023-07-29T08:08:03;0.63;;;0.60;;
47713;SDS011;33475;46.614;13.888;2023-07-29T08:10:30;0.82;;;0.70;;
47713;SDS011;33475;46.614;13.888;2023-07-29T08:12:56;1.17;;;1.08;;
47713;SDS011;33475;46.614;13.888;2023-07-29T08:15:22;1.23;;;0.90;;
47713;SDS011;33475;46.614;13.888;2023-07-29T08:17:48;1.85;;;0.80;;
47713;SDS011;33475;46.614;13.888;2023-07-29T08:20:14;0.45;;;0.45;;
47713;SDS011;33475;46.614;13.888;2023-07-29T08:22:40;0.60;;;0.60;;
47713;SDS011;33475;46.614;13.888;2023-07-29T08:25:06;0.50;;;0.50;;
47713;SDS011;33475;46.614;13.888;2023-07-29T08:27:33;3.15;;;0.73;;
47713;SDS011;33475;46.614;13.888;2023-07-29T08:29:59;0.70;;;0.50;;
47713;SDS011;33475;46.614;13.888;2023-07-29T08:32:25;0.90;;;0.60;;
47713;SDS011;33475;46.614;13.888;2023-07-29T08:34:52;0.55;;;0.55;;
47713;SDS011;33475;46.614;13.888;2023-07-29T08:37:18;3.78;;;0.63;;
47713;SDS011;33475;46.614;13.888;2023-07-29T08:39:44;0.70;;;0.70;;
47713;SDS011;33475;46.614;13.888;2023-07-29T08:42:11;1.17;;;0.70;;
47713;SDS011;33475;46.614;13.888;2023-07-29T08:44:41;1.65;;;0.80;;
47713;SDS011;33475;46.614;13.888;2023-07-29T08:47:08;0.73;;;0.70;;
47713;SDS011;33475;46.614;13.888;2023-07-29T08:49:34;1.75;;;0.80;;
47713;SDS011;33475;46.614;13.888;2023-07-29T08:52:01;1.05;;;0.73;;
47713;SDS011;33475;46.614;13.888;2023-07-29T08:54:28;0.60;;;0.60;;
47713;SDS011;33475;46.614;13.888;2023-07-29T08:56:54;0.73;;;0.60;;
47713;SDS011;33475;46.614;13.888;2023-07-29T08:59:20;1.55;;;0.70;;
47713;SDS011;33475;46.614;13.888;2023-07-29T09:01:47;1.33;;;0.90;;
47713;SDS011;33475;46.614;13.888;2023-07-29T09:04:13;0.68;;;0.47;;
47713;SDS011;33475;46.614;13.888;2023-07-29T09:06:39;0.82;;;0.68;;
47713;SDS011;33475;46.614;13.888;2023-07-29T09:09:07;0.68;;;0.68;;
47713;SDS011;33475;46.614;13.888;2023-07-29T09:11:34;2.72;;;0.68;;
47713;SDS011;33475;46.614;13.888;2023-07-29T09:14:01;1.90;;;0.80;;
47713;SDS011;33475;46.614;13.888;2023-07-29T09:16:27;0.95;;;0.73;;
47713;SDS011;33475;46.614;13.888;2023-07-29T09:18:53;5.15;;;0.60;;
47713;SDS011;33475;46.614;13.888;2023-07-29T09:21:23;0.70;;;0.70;;
47713;SDS011;33475;46.614;13.888;2023-07-29T09:23:51;0.50;;;0.50;;
47713;SDS011;33475;46.614;13.888;2023-07-29T09:26:24;2.13;;;0.70;;
47713;SDS011;33475;46.614;13.888;2023-07-29T09:28:51;1.63;;;0.70;;
47713;SDS011;33475;46.614;13.888;2023-07-29T09:31:22;0.90;;;0.52;;
47713;SDS011;33475;46.614;13.888;2023-07-29T09:33:49;1.55;;;0.50;;
47713;SDS011;33475;46.614;13.888;2023-07-29T09:36:15;0.60;;;0.60;;
47713;SDS011;33475;46.614;13.888;2023-07-29T09:38:41;0.52;;;0.50;;
47713;SDS011;33475;46.614;13.888;2023-07-29T09:41:09;1.65;;;0.63;;
47713;SDS011;33475;46.614;13.888;2023-07-29T09:43:37;1.30;;;0.70;;
47713;SDS011;33475;46.614;13.888;2023-07-29T09:46:04;0.70;;;0.60;;
47713;SDS011;33475;46.614;13.888;2023-07-29T09:48:34;0.70;;;0.60;;
47713;SDS011;33475;46.614;13.888;2023-07-29T09:51:09;1.05;;;0.60;;
47713;SDS011;33475;46.614;13.888;2023-07-29T09:53:39;0.60;;;0.60;;
47713;SDS011;33475;46.614;13.888;2023-07-29T09:56:06;0.70;;;0.50;;
47713;SDS011;33475;46.614;13.888;2023-07-29T09:58:32;1.15;;;0.75;;
47713;SDS011;33475;46.614;13.888;2023-07-29T10:01:00;0.60;;;0.60;;
47713;SDS011;33475;46.614;13.888;2023-07-29T10:03:26;0.68;;;0.60;;
47713;SDS011;33475;46.614;13.888;2023-07-29T10:05:53;0.68;;;0.68;;
47713;SDS011;33475;46.614;13.888;2023-07-29T10:08:19;0.77;;;0.65;;
47713;SDS011;33475;46.614;13.888;2023-07-29T10:10:46;1.13;;;0.70;;
47713;SDS011;33475;46.614;13.888;2023-07-29T10:13:12;0.68;;;0.60;;
47713;SDS011;33475;46.614;13.888;2023-07-29T10:15:39;0.40;;;0.40;;
47713;SDS011;33475;46.614;13.888;2023-07-29T10:18:05;0.60;;;0.40;;
47713;SDS011;33475;46.614;13.888;2023-07-29T10:20:31;2.90;;;0.88;;
47713;SDS011;33475;46.614;13.888;2023-07-29T10:22:59;0.50;;;0.50;;
47713;SDS011;33475;46.614;13.888;2023-07-29T10:25:26;0.68;;;0.60;;
47713;SDS011;33475;46.614;13.888;2023-07-29T10:28:05;0.40;;;0.40;;
47713;SDS011;33475;46.614;13.888;2023-07-29T10:30:32;1.20;;;0.60;;
47713;SDS011;33475;46.614;13.888;2023-07-29T10:32:59;2.13;;;0.60;;
47713;SDS011;33475;46.614;13.888;2023-07-29T10:35:27;0.68;;;0.52;;
47713;SDS011;33475;46.614;13.888;2023-07-29T10:37:53;0.73;;;0.57;;
47713;SDS011;33475;46.614;13.888;2023-07-29T10:40:20;0.57;;;0.57;;
47713;SDS011;33475;46.614;13.888;2023-07-29T10:43:00;0.60;;;0.60;;
47713;SDS011;33475;46.614;13.888;2023-07-29T10:45:39;0.57;;;0.57;;
47713;SDS011;33475;46.614;13.888;2023-07-29T10:48:12;0.60;;;0.43;;
47713;SDS011;33475;46.614;13.888;2023-07-29T10:50:38;0.40;;;0.40;;
47713;SDS011;33475;46.614;13.888;2023-07-29T10:53:04;0.82;;;0.50;;
47713;SDS011;33475;46.614;13.888;2023-07-29T10:55:34;0.40;;;0.40;;
47713;SDS011;33475;46.614;13.888;2023-07-29T10:58:15;0.50;;;0.40;;
47713;SDS011;33475;46.614;13.888;2023-07-29T11:00:43;0.82;;;0.50;;
47713;SDS011;33475;46.614;13.888;2023-07-29T11:03:09;0.50;;;0.50;;
47713;SDS011;33475;46.614;13.888;2023-07-29T11:05:46;0.85;;;0.40;;
47713;SDS011;33475;46.614;13.888;2023-07-29T11:08:16;0.47;;;0.40;;
47713;SDS011;33475;46.614;13.888;2023-07-29T11:10:43;0.40;;;0.40;;
47713;SDS011;33475;46.614;13.888;2023-07-29T11:13:10;0.52;;;0.52;;
47713;SDS011;33475;46.614;13.888;2023-07-29T11:15:37;0.75;;;0.40;;
47713;SDS011;33475;46.614;13.888;2023-07-29T11:18:04;0.43;;;0.43;;
47713;SDS011;33475;46.614;13.888;2023-07-29T11:20:33;0.73;;;0.57;;
47713;SDS011;33475;46.614;13.888;2023-07-29T11:23:01;3.35;;;0.70;;
47713;SDS011;33475;46.614;13.888;2023-07-29T11:25:28;0.77;;;0.50;;
47713;SDS011;33475;46.614;13.888;2023-07-29T11:27:55;3.22;;;0.60;;
47713;SDS011;33475;46.614;13.888;2023-07-29T11:30:21;0.75;;;0.70;;
47713;SDS011;33475;46.614;13.888;2023-07-29T11:32:58;0.85;;;0.50;;
47713;SDS011;33475;46.614;13.888;2023-07-29T11:35:25;0.80;;;0.52;;
47713;SDS011;33475;46.614;13.888;2023-07-29T11:37:53;1.10;;;0.52;;
47713;SDS011;33475;46.614;13.888;2023-07-29T11:40:21;0.95;;;0.57;;
47713;SDS011;33475;46.614;13.888;2023-07-29T11:42:48;1.95;;;0.60;;
47713;SDS011;33475;46.614;13.888;2023-07-29T11:45:18;1.92;;;0.60;;
47713;SDS011;33475;46.614;13.888;2023-07-29T11:47:45;0.68;;;0.68;;
47713;SDS011;33475;46.614;13.888;2023-07-29T11:50:12;1.00;;;0.50;;
47713;SDS011;33475;46.614;13.888;2023-07-29T11:52:42;2.22;;;0.70;;
47713;SDS011;33475;46.614;13.888;2023-07-29T11:55:09;0.43;;;0.43;;
47713;SDS011;33475;46.614;13.888;2023-07-29T11:57:36;0.50;;;0.50;;
47713;SDS011;33475;46.614;13.888;2023-07-29T12:00:06;0.60;;;0.60;;
47713;SDS011;33475;46.614;13.888;2023-07-29T12:02:33;0.57;;;0.57;;
47713;SDS011;33475;46.614;13.888;2023-07-29T12:05:00;0.50;;;0.50;;
47713;SDS011;33475;46.614;13.888;2023-07-29T12:07:29;1.10;;;0.60;;
47713;SDS011;33475;46.614;13.888;2023-07-29T12:09:55;0.60;;;0.60;;
47713;SDS011;33475;46.614;13.888;2023-07-29T12:12:22;0.65;;;0.60;;
47713;SDS011;33475;46.614;13.888;2023-07-29T12:14:49;0.63;;;0.63;;
47713;SDS011;33475;46.614;13.888;2023-07-29T12:17:15;0.50;;;0.50;;
47713;SDS011;33475;46.614;13.888;2023-07-29T12:19:41;0.68;;;0.68;;
47713;SDS011;33475;46.614;13.888;2023-07-29T12:22:09;0.47;;;0.47;;
47713;SDS011;33475;46.614;13.888;2023-07-29T12:24:36;0.60;;;0.60;;
47713;SDS011;33475;46.614;13.888;2023-07-29T12:27:03;0.60;;;0.60;;
47713;SDS011;33475;46.614;13.888;2023-07-29T12:29:29;0.40;;;0.40;;
47713;SDS011;33475;46.614;13.888;2023-07-29T12:34:25;0.60;;;0.60;;
47713;SDS011;33475;46.614;13.888;2023-07-29T12:36:52;0.65;;;0.65;;
47713;SDS011;33475;46.614;13.888;2023-07-29T12:39:20;0.70;;;0.70;;
47713;SDS011;33475;46.614;13.888;2023-07-29T12:41:47;1.08;;;0.98;;
47713;SDS011;33475;46.614;13.888;2023-07-29T12:44:14;0.68;;;0.68;;
47713;SDS011;33475;46.614;13.888;2023-07-29T12:46:40;1.20;;;1.10;;
47713;SDS011;33475;46.614;13.888;2023-07-29T12:49:06;1.80;;;0.93;;
47713;SDS011;33475;46.614;13.888;2023-07-29T12:51:33;0.85;;;0.73;;
47713;SDS011;33475;46.614;13.888;2023-07-29T12:53:59;1.95;;;0.52;;
47713;SDS011;33475;46.614;13.888;2023-07-29T12:56:26;0.63;;;0.60;;
47713;SDS011;33475;46.614;13.888;2023-07-29T12:58:52;1.42;;;0.50;;
47713;SDS011;33475;46.614;13.888;2023-07-29T13:01:18;1.65;;;0.63;;
47713;SDS011;33475;46.614;13.888;2023-07-29T13:03:45;0.60;;;0.50;;
47713;SDS011;33475;46.614;13.888;2023-07-29T13:06:11;0.65;;;0.60;;
47713;SDS011;33475;46.614;13.888;2023-07-29T13:08:37;0.85;;;0.50;;
47713;SDS011;33475;46.614;13.888;2023-07-29T13:11:04;0.68;;;0.68;;
47713;SDS011;33475;46.614;13.888;2023-07-29T13:13:30;0.93;;;0.57;;
47713;SDS011;33475;46.614;13.888;2023-07-29T13:15:57;1.10;;;1.10;;
47713;SDS011;33475;46.614;13.888;2023-07-29T13:18:23;0.68;;;0.68;;
47713;SDS011;33475;46.614;13.888;2023-07-29T13:20:49;0.60;;;0.60;;
47713;SDS011;33475;46.614;13.888;2023-07-29T13:23:16;1.55;;;0.60;;
47713;SDS011;33475;46.614;13.888;2023-07-29T13:25:42;0.73;;;0.73;;
47713;SDS011;33475;46.614;13.888;2023-07-29T13:28:09;1.27;;;0.60;;
47713;SDS011;33475;46.614;13.888;2023-07-29T13:30:35;0.65;;;0.60;;
47713;SDS011;33475;46.614;13.888;2023-07-29T13:33:01;0.68;;;0.68;;
47713;SDS011;33475;46.614;13.888;2023-07-29T13:35:29;0.70;;;0.70;;
47713;SDS011;33475;46.614;13.888;2023-07-29T13:37:55;1.67;;;0.50;;
47713;SDS011;33475;46.614;13.888;2023-07-29T13:40:21;0.70;;;0.70;;
47713;SDS011;33475;46.614;13.888;2023-07-29T13:42:48;0.55;;;0.55;;
47713;SDS011;33475;46.614;13.888;2023-07-29T13:45:14;1.90;;;0.70;;
47713;SDS011;33475;46.614;13.888;2023-07-29T13:47:40;0.60;;;0.60;;
47713;SDS011;33475;46.614;13.888;2023-07-29T13:50:06;0.75;;;0.75;;
47713;SDS011;33475;46.614;13.888;2023-07-29T13:52:33;0.85;;;0.85;;
47713;SDS011;33475;46.614;13.888;2023-07-29T13:54:59;0.68;;;0.55;;
47713;SDS011;33475;46.614;13.888;2023-07-29T13:57:25;1.55;;;0.55;;
47713;SDS011;33475;46.614;13.888;2023-07-29T13:59:51;0.68;;;0.60;;
47713;SDS011;33475;46.614;13.888;2023-07-29T14:02:18;1.20;;;0.70;;
47713;SDS011;33475;46.614;13.888;2023-07-29T14:04:44;0.60;;;0.60;;
47713;SDS011;33475;46.614;13.888;2023-07-29T14:07:10;0.70;;;0.70;;
47713;SDS011;33475;46.614;13.888;2023-07-29T14:09:36;1.00;;;0.60;;
47713;SDS011;33475;46.614;13.888;2023-07-29T14:12:03;0.70;;;0.60;;
47713;SDS011;33475;46.614;13.888;2023-07-29T14:14:30;0.70;;;0.70;;
47713;SDS011;33475;46.614;13.888;2023-07-29T14:16:56;3.13;;;0.77;;
47713;SDS011;33475;46.614;13.888;2023-07-29T14:19:23;1.20;;;1.10;;
47713;SDS011;33475;46.614;13.888;2023-07-29T14:21:49;0.77;;;0.77;;
47713;SDS011;33475;46.614;13.888;2023-07-29T14:24:15;1.20;;;1.10;;
47713;SDS011;33475;46.614;13.888;2023-07-29T14:26:42;1.27;;;1.17;;
47713;SDS011;33475;46.614;13.888;2023-07-29T14:29:08;1.60;;;1.30;;
47713;SDS011;33475;46.614;13.888;2023-07-29T14:31:34;0.75;;;0.75;;
47713;SDS011;33475;46.614;13.888;2023-07-29T14:34:00;1.60;;;1.05;;
47713;SDS011;33475;46.614;13.888;2023-07-29T14:36:26;0.80;;;0.80;;
47713;SDS011;33475;46.614;13.888;2023-07-29T14:38:52;0.85;;;0.80;;